createdAt,value
2022-08-14T00:01:36.857Z,3.00
2022-08-14T00:04:42.408Z,2.70
2022-08-14T00:07:47.028Z,3.10
2022-08-14T00:10:51.569Z,3.00
2022-08-14T00:13:55.366Z,2.92
2022-08-14T00:16:57.460Z,3.00
2022-08-14T00:20:03.334Z,2.95
2022-08-14T00:23:12.433Z,2.72
2022-08-14T00:26:21.604Z,3.00
2022-08-14T00:29:25.364Z,2.80
2022-08-14T00:32:50.533Z,3.20
2022-08-14T00:36:37.431Z,2.70
2022-08-14T00:39:17.803Z,2.70
2022-08-14T00:42:55.370Z,2.83
2022-08-14T00:45:43.215Z,3.22
2022-08-14T00:48:53.633Z,3.10
2022-08-14T00:51:55.998Z,2.95
2022-08-14T00:54:58.566Z,3.08
2022-08-14T00:58:32.667Z,3.30
2022-08-14T01:01:37.196Z,3.20
2022-08-14T01:04:53.478Z,2.95
2022-08-14T01:07:59.433Z,3.15
2022-08-14T01:11:01.625Z,3.03
2022-08-14T01:14:25.836Z,3.42
2022-08-14T01:21:04.119Z,3.28
2022-08-14T01:24:10.947Z,2.92
2022-08-14T01:27:18.750Z,2.95
2022-08-14T01:30:22.333Z,3.15
2022-08-14T01:33:59.314Z,2.92
2022-08-14T01:36:54.189Z,3.10
2022-08-14T01:39:56.204Z,2.97
2022-08-14T01:42:58.181Z,3.03
2022-08-14T01:49:10.220Z,3.00
2022-08-14T01:52:23.244Z,3.08
2022-08-14T01:55:35.887Z,2.80
2022-08-14T01:58:38.231Z,3.03
2022-08-14T02:02:09.989Z,3.13
2022-08-14T02:05:21.511Z,2.83
2022-08-14T02:08:34.568Z,2.72
2022-08-14T02:11:37.519Z,2.90
2022-08-14T02:14:40.321Z,3.10
2022-08-14T02:18:01.596Z,2.72
2022-08-14T02:21:04.982Z,2.92
2022-08-14T02:24:07.278Z,2.85
2022-08-14T02:28:24.454Z,2.85
2022-08-14T02:30:52.879Z,3.17
2022-08-14T02:33:55.104Z,3.03
2022-08-14T02:40:09.436Z,2.95
2022-08-14T02:43:12.065Z,3.22
2022-08-14T02:46:20.545Z,2.85
2022-08-14T02:49:34.019Z,3.17
2022-08-14T02:52:57.486Z,2.92
2022-08-14T02:56:03.308Z,3.33
2022-08-14T02:59:21.956Z,3.10
2022-08-14T03:02:48.977Z,3.30
2022-08-14T03:05:45.920Z,3.40
2022-08-14T03:08:52.821Z,3.20
2022-08-14T03:11:55.801Z,2.92
2022-08-14T03:14:59.038Z,3.10
2022-08-14T03:18:01.597Z,3.35
2022-08-14T03:21:08.098Z,3.60
2022-08-14T03:24:21.640Z,3.40
2022-08-14T03:27:35.293Z,3.10
2022-08-14T03:30:50.077Z,3.20
2022-08-14T03:34:00.187Z,3.03
2022-08-14T03:37:51.144Z,3.33
2022-08-14T03:40:25.370Z,3.30
2022-08-14T03:43:32.311Z,3.13
2022-08-14T03:46:52.315Z,3.90
2022-08-14T03:49:58.106Z,3.45
2022-08-14T03:53:01.901Z,3.70
2022-08-14T03:56:08.015Z,3.60
2022-08-14T03:59:17.643Z,3.42
2022-08-14T04:02:33.080Z,3.80
2022-08-14T04:05:42.711Z,3.55
2022-08-14T04:08:50.405Z,3.40
2022-08-14T04:14:54.311Z,3.87
2022-08-14T04:17:56.660Z,4.07
2022-08-14T04:20:59.141Z,3.35
2022-08-14T04:24:01.735Z,3.95
2022-08-14T04:27:03.860Z,4.00
2022-08-14T04:33:18.422Z,3.92
2022-08-14T04:36:23.976Z,4.18
2022-08-14T04:39:46.647Z,3.97
2022-08-14T04:43:07.388Z,4.63
2022-08-14T04:46:56.851Z,4.05
2022-08-14T04:49:46.585Z,4.03
2022-08-14T04:52:59.044Z,4.35
2022-08-14T04:56:01.025Z,4.28
2022-08-14T04:59:10.599Z,4.95
2022-08-14T05:02:13.917Z,5.50
2022-08-14T05:05:16.925Z,4.90
2022-08-14T05:08:32.430Z,4.63
2022-08-14T05:11:42.153Z,4.28
2022-08-14T05:14:53.204Z,4.10
2022-08-14T05:18:03.879Z,4.40
2022-08-14T05:21:59.372Z,4.30
2022-08-14T05:24:40.706Z,3.97
2022-08-14T05:27:42.697Z,4.40
2022-08-14T05:30:47.707Z,4.20
2022-08-14T05:33:56.539Z,4.63
2022-08-14T05:37:02.248Z,3.92
2022-08-14T05:40:05.884Z,3.90
2022-08-14T05:43:08.477Z,4.00
2022-08-14T05:46:15.670Z,4.45
2022-08-14T05:49:17.960Z,4.78
2022-08-14T05:55:42.739Z,4.00
2022-08-14T05:58:46.518Z,4.30
2022-08-14T06:01:50.570Z,4.63
2022-08-14T06:04:53.141Z,4.47
2022-08-14T06:07:57.341Z,4.40
2022-08-14T06:11:03.597Z,4.50
2022-08-14T06:14:06.616Z,4.57
2022-08-14T06:17:25.687Z,4.43
2022-08-14T06:20:30.227Z,4.75
2022-08-14T06:23:32.428Z,4.13
2022-08-14T06:26:35.588Z,4.15
2022-08-14T06:29:39.777Z,4.35
2022-08-14T06:32:42.284Z,3.70
2022-08-14T06:35:44.772Z,3.88
2022-08-14T06:38:50.840Z,3.60
2022-08-14T06:41:58.252Z,3.20
2022-08-14T06:45:02.771Z,4.07
2022-08-14T06:48:06.064Z,4.28
2022-08-14T06:51:08.553Z,2.90
2022-08-14T06:54:13.759Z,2.83
2022-08-14T06:57:18.263Z,2.70
2022-08-14T07:00:22.455Z,2.95
2022-08-14T07:03:48.415Z,2.80
2022-08-14T07:06:50.722Z,2.72
2022-08-14T07:09:53.272Z,2.78
2022-08-14T07:13:03.968Z,2.78
2022-08-14T07:16:07.291Z,3.10
2022-08-14T07:19:09.983Z,3.03
2022-08-14T07:22:17.546Z,2.50
2022-08-14T07:25:22.713Z,2.70
2022-08-14T07:28:42.930Z,2.70
2022-08-14T07:31:46.534Z,2.40
2022-08-14T07:34:49.359Z,2.40
2022-08-14T07:37:52.605Z,2.38
2022-08-14T07:40:54.922Z,2.60
2022-08-14T07:43:57.631Z,2.65
2022-08-14T07:47:00.092Z,2.60
2022-08-14T07:50:05.108Z,2.95
2022-08-14T07:53:07.581Z,2.60
2022-08-14T07:56:43.767Z,2.78
2022-08-14T07:59:40.864Z,3.00
2022-08-14T08:02:45.834Z,2.77
2022-08-14T08:05:47.886Z,2.97
2022-08-14T08:09:01.081Z,3.05
2022-08-14T08:12:14.175Z,2.78
2022-08-14T08:15:17.872Z,2.95
2022-08-14T08:18:27.557Z,3.20
2022-08-14T08:21:33.125Z,3.00
2022-08-14T08:24:35.793Z,3.03
2022-08-14T08:27:38.168Z,3.17
2022-08-14T08:30:59.886Z,3.53
2022-08-14T08:34:05.297Z,3.35
2022-08-14T08:37:08.395Z,3.55
2022-08-14T08:40:11.812Z,3.58
2022-08-14T08:43:26.498Z,3.13
2022-08-14T08:46:28.406Z,3.60
2022-08-14T08:49:42.905Z,3.55
2022-08-14T08:52:53.789Z,4.22
2022-08-14T08:55:55.940Z,3.60
2022-08-14T08:58:57.881Z,3.55
2022-08-14T09:02:10.382Z,3.70
2022-08-14T09:05:12.656Z,3.67
2022-08-14T09:08:30.578Z,3.42
2022-08-14T09:11:34.891Z,3.13
2022-08-14T09:14:39.975Z,3.30
2022-08-14T09:17:42.710Z,3.63
2022-08-14T09:20:46.772Z,3.13
2022-08-14T09:24:26.388Z,3.15
2022-08-14T09:27:22.234Z,3.08
2022-08-14T09:30:32.936Z,3.20
2022-08-14T09:34:19.691Z,3.55
2022-08-14T09:37:47.188Z,2.80
2022-08-14T09:40:58.147Z,2.70
2022-08-14T09:44:08.017Z,2.80
2022-08-14T09:47:10.711Z,2.92
2022-08-14T09:50:20.852Z,2.67
2022-08-14T09:54:12.758Z,2.85
2022-08-14T09:56:56.579Z,3.30
2022-08-14T10:00:28.653Z,2.70
2022-08-14T10:03:34.474Z,3.10
2022-08-14T10:06:44.445Z,2.65
2022-08-14T10:10:00.358Z,4.22
2022-08-14T10:13:08.173Z,3.03
2022-08-14T10:16:25.708Z,2.70
2022-08-14T10:19:29.519Z,2.70
2022-08-14T10:23:13.645Z,2.53
2022-08-14T10:26:06.801Z,2.75
2022-08-14T10:29:19.442Z,3.30
2022-08-14T10:32:28.300Z,2.90
2022-08-14T10:35:41.634Z,3.25
2022-08-14T10:38:58.135Z,2.65
2022-08-14T10:42:16.316Z,3.13
2022-08-14T10:45:22.060Z,3.15
2022-08-14T10:48:37.237Z,2.88
2022-08-14T10:51:54.130Z,2.75
2022-08-14T10:55:08.720Z,2.50
2022-08-14T10:58:12.177Z,2.42
2022-08-14T11:01:16.172Z,3.38
2022-08-14T11:04:26.024Z,2.60
2022-08-14T11:07:31.592Z,2.50
2022-08-14T11:10:46.508Z,2.30
2022-08-14T11:13:51.099Z,2.03
2022-08-14T11:16:53.597Z,2.30
2022-08-14T11:19:58.800Z,2.40
2022-08-14T11:23:01.526Z,2.17
2022-08-14T11:26:07.110Z,2.15
2022-08-14T11:29:09.165Z,2.10
2022-08-14T11:32:11.453Z,2.30
2022-08-14T11:35:16.110Z,2.28
2022-08-14T11:38:20.057Z,2.38
2022-08-14T11:41:22.264Z,2.40
2022-08-14T11:44:46.727Z,2.30
2022-08-14T11:48:12.563Z,1.92
2022-08-14T11:51:24.106Z,2.10
2022-08-14T11:54:33.625Z,2.15
2022-08-14T11:57:37.872Z,2.60
2022-08-14T12:00:53.793Z,2.10
2022-08-14T12:03:59.211Z,2.33
2022-08-14T12:07:03.629Z,2.17
2022-08-14T12:10:26.581Z,2.05
2022-08-14T12:13:32.603Z,2.05
2022-08-14T12:16:37.107Z,1.90
2022-08-14T12:19:50.917Z,2.47
2022-08-14T12:22:55.813Z,2.08
2022-08-14T12:26:12.145Z,2.15
2022-08-14T12:29:29.898Z,1.90
2022-08-14T12:32:42.016Z,2.22
2022-08-14T12:35:45.279Z,2.28
2022-08-14T12:38:48.614Z,2.30
2022-08-14T12:42:01.510Z,2.00
2022-08-14T12:45:04.428Z,1.90
2022-08-14T12:48:21.309Z,2.38
2022-08-14T12:51:30.818Z,2.15
2022-08-14T12:54:33.337Z,2.38
2022-08-14T12:57:42.176Z,2.80
2022-08-14T13:01:14.342Z,2.50
2022-08-14T13:04:14.192Z,2.28
2022-08-14T13:07:16.945Z,2.00
2022-08-14T13:10:47.299Z,1.98
2022-08-14T13:13:46.175Z,2.15
2022-08-14T13:16:53.912Z,2.33
2022-08-14T13:20:00.791Z,2.80
2022-08-14T13:23:02.733Z,2.20
2022-08-14T13:26:07.269Z,2.20
2022-08-14T13:29:09.847Z,2.20
2022-08-14T13:32:12.456Z,1.90
2022-08-14T13:35:17.433Z,2.47
2022-08-14T13:38:23.225Z,2.17
2022-08-14T13:41:31.915Z,2.10
2022-08-14T13:44:41.895Z,2.30
2022-08-14T13:47:46.584Z,1.98
2022-08-14T13:50:55.480Z,2.38
2022-08-14T13:54:10.298Z,1.90
2022-08-14T13:57:14.178Z,1.80
2022-08-14T14:00:18.013Z,2.10
2022-08-14T14:03:24.619Z,2.15
2022-08-14T14:06:27.623Z,2.10
2022-08-14T14:09:37.426Z,2.00
2022-08-14T14:12:48.990Z,2.30
2022-08-14T14:16:00.937Z,2.15
2022-08-14T14:19:09.328Z,2.00
2022-08-14T14:22:35.473Z,2.33
2022-08-14T14:25:45.823Z,1.92
2022-08-14T14:28:50.753Z,2.10
2022-08-14T14:31:52.873Z,2.03
2022-08-14T14:34:54.792Z,2.00
2022-08-14T14:37:57.508Z,2.30
2022-08-14T14:41:00.774Z,2.10
2022-08-14T14:44:03.715Z,2.10
2022-08-14T14:47:10.890Z,1.90
2022-08-14T14:50:13.082Z,2.03
2022-08-14T14:53:15.557Z,1.95
2022-08-14T14:56:51.118Z,2.53
2022-08-14T14:59:39.662Z,2.30
2022-08-14T15:02:43.565Z,2.30
2022-08-14T15:05:45.659Z,2.28
2022-08-14T15:08:56.384Z,2.33
2022-08-14T15:11:59.993Z,2.60
2022-08-14T15:15:08.859Z,2.65
2022-08-14T15:18:36.628Z,2.38
2022-08-14T15:21:34.968Z,2.78
2022-08-14T15:24:38.641Z,2.42
2022-08-14T15:27:44.316Z,1.95
2022-08-14T15:30:57.753Z,2.40
2022-08-14T15:34:45.552Z,2.15
2022-08-14T15:37:35.046Z,2.50
2022-08-14T15:40:41.114Z,2.40
2022-08-14T15:43:44.486Z,2.42
2022-08-14T15:46:47.816Z,2.58
2022-08-14T15:49:56.324Z,2.55
2022-08-14T15:53:01.726Z,2.70
2022-08-14T15:56:04.020Z,2.90
2022-08-14T15:59:09.771Z,2.70
2022-08-14T16:02:11.817Z,2.60
2022-08-14T16:05:13.863Z,2.60
2022-08-14T16:08:29.511Z,2.58
2022-08-14T16:11:33.366Z,2.50
2022-08-14T16:14:39.775Z,2.80
2022-08-14T16:17:46.938Z,2.60
2022-08-14T16:20:52.152Z,3.00
2022-08-14T16:23:54.168Z,3.00
2022-08-14T16:27:00.352Z,3.15
2022-08-14T16:30:04.140Z,2.60
2022-08-14T16:33:09.532Z,3.20
2022-08-14T16:36:31.546Z,3.00
2022-08-14T16:39:35.536Z,3.28
2022-08-14T16:43:04.673Z,3.15
2022-08-14T16:46:01.722Z,3.13
2022-08-14T16:49:07.177Z,3.67
2022-08-14T16:52:25.598Z,3.30
2022-08-14T16:55:33.294Z,3.55
2022-08-14T16:59:13.946Z,3.85
2022-08-14T17:02:18.832Z,3.47
2022-08-14T17:05:25.147Z,3.80
2022-08-14T17:08:31.939Z,4.05
2022-08-14T17:11:54.472Z,4.20
2022-08-14T17:15:10.247Z,4.13
2022-08-14T17:18:15.041Z,4.63
2022-08-14T17:21:31.619Z,4.50
2022-08-14T17:24:56.788Z,4.88
2022-08-14T17:28:51.599Z,4.90
2022-08-14T17:31:58.845Z,4.68
2022-08-14T17:35:05.525Z,4.60
2022-08-14T17:38:39.056Z,4.53
2022-08-14T17:41:45.330Z,4.97
2022-08-14T17:44:48.257Z,5.10
2022-08-14T17:47:51.342Z,4.50
2022-08-14T17:51:00.061Z,4.38
2022-08-14T17:54:04.727Z,4.80
2022-08-14T17:57:13.207Z,5.10
2022-08-14T18:00:17.544Z,5.55
2022-08-14T18:03:51.052Z,4.65
2022-08-14T18:06:58.473Z,5.10
2022-08-14T18:10:51.812Z,5.43
2022-08-14T18:13:51.946Z,4.95
2022-08-14T18:16:57.223Z,5.10
2022-08-14T18:19:59.199Z,5.50
2022-08-14T18:23:01.644Z,5.60
2022-08-14T18:26:07.748Z,5.70
2022-08-14T18:29:31.754Z,5.78
2022-08-14T18:32:34.913Z,6.57
2022-08-14T18:35:58.660Z,6.07
2022-08-14T18:39:21.643Z,5.82
2022-08-14T18:42:30.300Z,6.63
2022-08-14T18:45:34.687Z,6.45
2022-08-14T18:48:50.727Z,6.30
2022-08-14T18:52:18.661Z,6.22
2022-08-14T18:55:21.427Z,6.85
2022-08-14T18:58:31.346Z,6.88
2022-08-14T19:01:37.678Z,6.97
2022-08-14T19:04:46.273Z,6.35
2022-08-14T19:08:17.203Z,6.78
2022-08-14T19:11:37.886Z,7.18
2022-08-14T19:14:47.548Z,7.03
2022-08-14T19:18:10.859Z,8.10
2022-08-14T19:21:31.815Z,7.85
2022-08-14T19:30:39.925Z,8.05
2022-08-14T19:33:52.602Z,7.93
2022-08-14T19:37:08.853Z,8.35
2022-08-14T19:40:19.563Z,8.20
2022-08-14T19:43:56.633Z,7.63
2022-08-14T19:47:02.699Z,8.35
2022-08-14T19:50:39.081Z,8.90
2022-08-14T19:53:30.285Z,8.25
2022-08-14T19:56:39.676Z,8.68
2022-08-14T19:59:57.985Z,8.93
2022-08-14T20:03:12.067Z,9.15
2022-08-14T20:06:14.777Z,7.95
2022-08-14T20:11:06.406Z,8.40
2022-08-14T20:12:57.410Z,7.95
2022-08-14T20:16:12.196Z,7.55
2022-08-14T20:19:23.229Z,6.32
2022-08-14T20:22:39.036Z,6.63
2022-08-14T20:25:45.454Z,5.88
2022-08-14T20:28:58.024Z,6.22
2022-08-14T20:32:00.504Z,7.10
2022-08-14T20:35:05.748Z,6.90
2022-08-14T20:38:31.684Z,7.45
2022-08-14T20:41:35.189Z,7.38
2022-08-14T20:45:03.965Z,6.85
2022-08-14T20:48:09.143Z,7.30
2022-08-14T20:51:25.281Z,5.97
2022-08-14T20:54:34.204Z,5.60
2022-08-14T20:57:43.654Z,5.65
2022-08-14T21:00:52.611Z,5.55
2022-08-14T21:03:56.706Z,5.30
2022-08-14T21:07:25.799Z,5.00
2022-08-14T21:10:44.235Z,4.57
2022-08-14T21:14:24.762Z,4.30
2022-08-14T21:20:26.439Z,4.07
2022-08-14T21:23:32.503Z,3.80
2022-08-14T21:26:52.740Z,3.92
2022-08-14T21:32:59.688Z,3.53
2022-08-14T21:36:07.461Z,3.75
2022-08-14T21:39:20.634Z,3.83
2022-08-14T21:42:23.404Z,3.95
2022-08-14T21:45:35.689Z,3.50
2022-08-14T21:48:37.922Z,4.10
2022-08-14T21:51:54.720Z,3.78
2022-08-14T21:54:59.420Z,3.80
2022-08-14T21:58:52.866Z,3.63
2022-08-14T22:04:33.243Z,3.50
2022-08-14T22:07:38.917Z,3.47
2022-08-14T22:10:46.315Z,3.45
2022-08-14T22:13:49.087Z,3.42
2022-08-14T22:17:00.053Z,3.40
2022-08-14T22:20:05.298Z,3.33
2022-08-14T22:23:09.644Z,3.20
2022-08-14T22:26:12.136Z,3.20
2022-08-14T22:29:23.929Z,3.20
2022-08-14T22:35:48.175Z,3.50
2022-08-14T22:38:58.562Z,3.05
2022-08-14T22:42:01.994Z,3.45
2022-08-14T22:45:23.477Z,3.10
2022-08-14T22:48:25.586Z,3.10
2022-08-14T22:51:31.456Z,3.00
2022-08-14T22:54:52.152Z,3.00
2022-08-14T22:57:55.652Z,2.63
2022-08-14T23:01:01.501Z,2.95
2022-08-14T23:04:04.064Z,2.63
2022-08-14T23:07:22.891Z,2.70
2022-08-14T23:10:32.238Z,2.80
2022-08-14T23:13:38.923Z,2.88
2022-08-14T23:16:42.555Z,2.70
2022-08-14T23:19:44.830Z,2.80
2022-08-14T23:22:51.631Z,2.80
2022-08-14T23:25:59.395Z,2.50
2022-08-14T23:29:03.937Z,2.70
2022-08-14T23:32:06.214Z,2.80
2022-08-14T23:35:25.989Z,2.35
2022-08-14T23:38:30.704Z,2.75
2022-08-14T23:41:47.004Z,2.42
2022-08-14T23:44:55.714Z,2.80
2022-08-14T23:47:59.480Z,2.50
2022-08-14T23:51:02.996Z,2.42
2022-08-14T23:54:05.231Z,2.67
